createdAt,value
2018-07-22T00:00:34.894Z,23.47
2018-07-22T00:03:04.113Z,23.48
2018-07-22T00:05:33.323Z,23.42
2018-07-22T00:08:02.574Z,23.37
2018-07-22T00:10:31.720Z,23.36
2018-07-22T00:13:01.093Z,23.31
2018-07-22T00:15:30.393Z,23.26
2018-07-22T00:17:59.193Z,23.24
2018-07-22T00:20:28.541Z,23.20
2018-07-22T00:22:57.870Z,23.13
2018-07-22T00:25:27.023Z,23.13
2018-07-22T00:27:56.003Z,23.12
2018-07-22T00:30:25.329Z,23.07
2018-07-22T00:32:54.377Z,23.02
2018-07-22T00:35:23.646Z,23.01
2018-07-22T00:37:52.800Z,23.05
2018-07-22T00:40:22.051Z,23.05
2018-07-22T00:42:51.183Z,23.00
2018-07-22T00:45:20.422Z,22.99
2018-07-22T00:47:49.204Z,22.96
2018-07-22T00:50:18.218Z,22.94
2018-07-22T00:52:47.498Z,22.88
2018-07-22T00:55:16.553Z,22.89
2018-07-22T00:57:45.717Z,22.84
2018-07-22T01:00:14.742Z,22.84
2018-07-22T01:02:44.000Z,22.82
2018-07-22T01:05:13.201Z,22.73
2018-07-22T01:07:42.331Z,22.67
2018-07-22T01:10:11.486Z,22.66
2018-07-22T01:12:40.710Z,22.61
2018-07-22T01:15:09.871Z,22.56
2018-07-22T01:17:38.900Z,22.52
2018-07-22T01:20:08.537Z,22.50
2018-07-22T01:22:37.403Z,22.52
2018-07-22T01:25:06.415Z,22.41
2018-07-22T01:27:35.965Z,22.45
2018-07-22T01:30:06.337Z,22.54
2018-07-22T01:32:35.638Z,22.71
2018-07-22T01:35:05.030Z,22.82
2018-07-22T01:37:34.263Z,22.79
2018-07-22T01:40:03.314Z,22.86
2018-07-22T01:42:32.468Z,22.86
2018-07-22T01:45:02.292Z,22.79
2018-07-22T01:47:31.547Z,22.74
2018-07-22T01:50:00.458Z,22.66
2018-07-22T01:52:29.718Z,22.57
2018-07-22T01:54:59.065Z,22.36
2018-07-22T01:57:28.300Z,22.47
2018-07-22T01:59:57.423Z,22.31
2018-07-22T02:02:26.589Z,22.20
2018-07-22T02:04:55.590Z,22.22
2018-07-22T02:07:24.357Z,22.19
2018-07-22T02:09:53.518Z,22.18
2018-07-22T02:12:22.668Z,22.20
2018-07-22T02:14:51.753Z,22.12
2018-07-22T02:17:20.795Z,22.16
2018-07-22T02:19:49.641Z,22.13
2018-07-22T02:22:18.634Z,22.20
2018-07-22T02:24:47.767Z,22.32
2018-07-22T02:27:16.820Z,22.31
2018-07-22T02:29:45.913Z,22.20
2018-07-22T02:32:15.095Z,22.33
2018-07-22T02:34:44.155Z,22.37
2018-07-22T02:37:13.207Z,22.35
2018-07-22T02:39:42.360Z,22.23
2018-07-22T02:42:11.490Z,22.19
2018-07-22T02:44:40.769Z,22.19
2018-07-22T02:47:09.625Z,22.16
2018-07-22T02:49:38.772Z,22.06
2018-07-22T02:52:07.926Z,22.16
2018-07-22T02:54:37.026Z,22.08
2018-07-22T02:57:06.731Z,22.05
2018-07-22T02:59:35.900Z,22.03
2018-07-22T03:02:05.211Z,22.03
2018-07-22T03:04:34.368Z,22.11
2018-07-22T03:07:03.272Z,22.07
2018-07-22T03:09:32.196Z,22.05
2018-07-22T03:12:01.078Z,22.02
2018-07-22T03:14:30.368Z,22.06
2018-07-22T03:16:59.255Z,22.08
2018-07-22T03:19:28.303Z,21.97
2018-07-22T03:21:57.505Z,22.08
2018-07-22T03:24:26.702Z,22.14
2018-07-22T03:26:55.480Z,22.10
2018-07-22T03:29:24.811Z,22.10
2018-07-22T03:31:53.586Z,22.08
2018-07-22T03:34:22.672Z,22.11
2018-07-22T03:36:51.995Z,22.14
2018-07-22T03:39:21.297Z,22.14
2018-07-22T03:41:50.380Z,22.20
2018-07-22T03:44:19.325Z,22.17
2018-07-22T03:46:48.351Z,22.06
2018-07-22T03:49:17.576Z,22.21
2018-07-22T03:51:46.766Z,22.26
2018-07-22T03:54:16.002Z,22.21
2018-07-22T03:56:45.283Z,22.16
2018-07-22T03:59:14.553Z,22.05
2018-07-22T04:01:43.879Z,22.06
2018-07-22T04:04:13.022Z,22.16
2018-07-22T04:06:42.160Z,22.30
2018-07-22T04:09:11.754Z,22.36
2018-07-22T04:11:41.050Z,22.52
2018-07-22T04:14:09.865Z,22.57
2018-07-22T04:16:38.991Z,22.61
2018-07-22T04:19:07.862Z,22.60
2018-07-22T04:21:36.940Z,22.67
2018-07-22T04:24:06.314Z,22.83
2018-07-22T04:26:35.610Z,22.74
2018-07-22T04:29:04.794Z,22.85
2018-07-22T04:31:33.859Z,22.89
2018-07-22T04:34:03.193Z,22.97
2018-07-22T04:36:32.329Z,23.02
2018-07-22T04:39:01.375Z,23.11
2018-07-22T04:41:30.651Z,23.22
2018-07-22T04:43:59.925Z,23.42
2018-07-22T04:46:29.059Z,23.38
2018-07-22T04:48:57.776Z,23.47
2018-07-22T04:51:27.071Z,23.58
2018-07-22T04:53:56.243Z,23.71
2018-07-22T04:56:25.203Z,23.77
2018-07-22T04:58:54.322Z,23.81
2018-07-22T05:01:23.567Z,23.86
2018-07-22T05:03:52.762Z,23.95
2018-07-22T05:06:21.998Z,24.06
2018-07-22T05:08:51.125Z,24.20
2018-07-22T05:11:20.452Z,24.30
2018-07-22T05:13:49.482Z,24.40
2018-07-22T05:16:18.667Z,24.47
2018-07-22T05:18:47.739Z,24.59
2018-07-22T05:21:16.542Z,24.72
2018-07-22T05:23:45.628Z,24.81
2018-07-22T05:26:14.533Z,24.91
2018-07-22T05:28:43.373Z,24.95
2018-07-22T05:31:12.417Z,24.97
2018-07-22T05:33:41.460Z,25.06
2018-07-22T05:36:10.500Z,25.21
2018-07-22T05:38:39.702Z,25.28
2018-07-22T05:41:08.869Z,25.38
2018-07-22T05:43:38.017Z,25.42
2018-07-22T05:46:07.053Z,25.51
2018-07-22T05:48:36.451Z,25.57
2018-07-22T05:51:05.547Z,25.65
2018-07-22T05:53:34.716Z,25.63
2018-07-22T05:56:04.006Z,25.65
2018-07-22T05:58:33.201Z,25.74
2018-07-22T06:01:02.026Z,25.79
2018-07-22T06:03:30.970Z,25.86
2018-07-22T06:05:59.819Z,25.93
2018-07-22T06:08:28.758Z,25.98
2018-07-22T06:10:57.722Z,25.98
2018-07-22T06:13:26.828Z,26.00
2018-07-22T06:15:56.182Z,26.04
2018-07-22T06:18:25.023Z,26.09
2018-07-22T06:20:54.117Z,26.16
2018-07-22T06:23:23.262Z,26.24
2018-07-22T06:25:52.206Z,26.29
2018-07-22T06:28:21.275Z,26.31
2018-07-22T06:30:50.304Z,26.39
2018-07-22T06:33:19.307Z,26.50
2018-07-22T06:35:48.550Z,26.61
2018-07-22T06:38:17.475Z,26.72
2018-07-22T06:40:46.689Z,26.82
2018-07-22T06:43:15.915Z,26.91
2018-07-22T06:45:45.193Z,27.00
2018-07-22T06:48:14.407Z,27.07
2018-07-22T06:50:43.443Z,27.16
2018-07-22T06:53:12.788Z,27.31
2018-07-22T06:55:41.955Z,27.42
2018-07-22T06:58:11.279Z,27.45
2018-07-22T07:00:40.078Z,27.52
2018-07-22T07:03:08.954Z,27.58
2018-07-22T07:05:38.182Z,27.61
2018-07-22T07:08:07.333Z,27.69
2018-07-22T07:10:36.238Z,27.78
2018-07-22T07:13:05.451Z,27.81
2018-07-22T07:15:34.750Z,27.95
2018-07-22T07:18:03.560Z,27.98
2018-07-22T07:20:32.313Z,28.03
2018-07-22T07:23:01.290Z,28.08
2018-07-22T07:25:30.562Z,28.15
2018-07-22T07:27:59.636Z,28.24
2018-07-22T07:30:28.720Z,28.30
2018-07-22T07:32:57.770Z,28.40
2018-07-22T07:35:26.761Z,28.52
2018-07-22T07:37:55.906Z,28.63
2018-07-22T07:40:24.878Z,28.71
2018-07-22T07:42:53.966Z,28.77
2018-07-22T07:45:23.206Z,28.81
2018-07-22T07:47:52.199Z,28.88
2018-07-22T07:50:21.334Z,28.94
2018-07-22T07:52:50.587Z,28.97
2018-07-22T07:55:19.399Z,29.06
2018-07-22T07:57:48.586Z,29.15
2018-07-22T08:00:17.908Z,29.22
2018-07-22T08:02:46.988Z,29.33
2018-07-22T08:05:16.192Z,29.38
2018-07-22T08:07:45.453Z,29.50
2018-07-22T08:10:14.531Z,29.69
2018-07-22T08:12:43.689Z,29.73
2018-07-22T08:15:12.788Z,29.82
2018-07-22T08:17:42.099Z,29.85
2018-07-22T08:20:11.303Z,29.92
2018-07-22T08:22:40.510Z,29.94
2018-07-22T08:25:09.881Z,29.91
2018-07-22T08:27:39.168Z,29.93
2018-07-22T08:30:08.118Z,30.02
2018-07-22T08:32:37.131Z,30.10
2018-07-22T08:35:06.427Z,30.21
2018-07-22T08:37:35.827Z,30.30
2018-07-22T08:40:05.382Z,30.37
2018-07-22T08:42:34.838Z,30.36
2018-07-22T08:45:04.233Z,30.37
2018-07-22T08:47:33.582Z,30.28
2018-07-22T08:50:02.571Z,30.36
2018-07-22T08:52:31.844Z,30.44
2018-07-22T08:55:01.164Z,30.55
2018-07-22T08:57:30.423Z,30.70
2018-07-22T08:59:59.721Z,30.78
2018-07-22T09:02:28.914Z,30.71
2018-07-22T09:04:58.049Z,30.81
2018-07-22T09:07:27.274Z,30.99
2018-07-22T09:09:56.722Z,31.10
2018-07-22T09:12:25.660Z,31.22
2018-07-22T09:14:56.092Z,31.37
2018-07-22T09:17:25.494Z,31.45
2018-07-22T09:19:54.928Z,31.58
2018-07-22T09:22:24.203Z,31.75
2018-07-22T09:24:53.397Z,32.03
2018-07-22T09:27:22.455Z,32.31
2018-07-22T09:29:51.763Z,32.61
2018-07-22T09:32:21.134Z,33.05
2018-07-22T09:34:50.268Z,33.63
2018-07-22T09:37:19.258Z,34.24
2018-07-22T09:39:48.596Z,34.93
2018-07-22T09:42:17.482Z,35.35
2018-07-22T09:44:46.912Z,36.03
2018-07-22T09:47:16.131Z,37.06
2018-07-22T09:49:45.512Z,37.87
2018-07-22T09:52:14.475Z,38.63
2018-07-22T09:54:43.679Z,39.62
2018-07-22T09:57:13.749Z,40.42
2018-07-22T09:59:42.942Z,40.97
2018-07-22T10:02:12.368Z,41.37
2018-07-22T10:04:41.795Z,42.23
2018-07-22T10:07:11.172Z,43.01
2018-07-22T10:09:40.236Z,44.03
2018-07-22T10:12:09.284Z,44.82
2018-07-22T10:14:38.627Z,44.81
2018-07-22T10:17:08.524Z,45.52
2018-07-22T10:19:38.900Z,46.24
2018-07-22T10:22:08.348Z,46.64
2018-07-22T10:24:37.807Z,47.13
2018-07-22T10:27:08.123Z,47.89
2018-07-22T10:29:37.407Z,47.67
2018-07-22T10:32:07.072Z,45.84
2018-07-22T10:34:36.104Z,45.91
2018-07-22T10:37:05.361Z,46.17
2018-07-22T10:39:34.353Z,47.07
2018-07-22T10:42:03.432Z,47.53
2018-07-22T10:44:32.775Z,48.02
2018-07-22T10:47:02.874Z,48.99
2018-07-22T10:49:32.206Z,49.13
2018-07-22T10:52:01.351Z,49.16
2018-07-22T10:54:30.774Z,49.75
2018-07-22T10:57:00.025Z,49.59
2018-07-22T10:59:29.319Z,48.91
2018-07-22T11:01:58.605Z,49.07
2018-07-22T11:04:28.044Z,49.08
2018-07-22T11:06:57.645Z,49.19
2018-07-22T11:09:27.034Z,48.57
2018-07-22T11:11:56.425Z,48.36
2018-07-22T11:14:25.967Z,48.31
2018-07-22T11:16:55.351Z,48.79
2018-07-22T11:19:24.270Z,49.04
2018-07-22T11:21:53.567Z,48.54
2018-07-22T11:27:06.443Z,47.45
2018-07-22T11:29:36.086Z,46.85
2018-07-22T11:32:05.350Z,46.75
2018-07-22T11:34:34.620Z,47.37
2018-07-22T11:37:04.077Z,47.47
2018-07-22T11:39:33.838Z,47.89
2018-07-22T11:42:02.918Z,48.61
2018-07-22T11:44:31.979Z,48.79
2018-07-22T11:47:01.181Z,48.09
2018-07-22T11:49:30.083Z,47.12
2018-07-22T11:51:59.329Z,47.71
2018-07-22T11:54:28.320Z,47.49
2018-07-22T11:56:57.715Z,47.26
2018-07-22T11:59:27.044Z,47.52
2018-07-22T12:01:56.870Z,48.00
2018-07-22T12:04:26.065Z,47.81
2018-07-22T12:06:55.585Z,47.84
2018-07-22T12:09:25.096Z,47.75
2018-07-22T12:11:54.082Z,47.21
2018-07-22T12:14:23.148Z,46.61
2018-07-22T12:16:52.372Z,45.99
2018-07-22T12:19:21.771Z,45.79
2018-07-22T12:21:50.959Z,45.93
2018-07-22T12:24:20.346Z,46.00
2018-07-22T12:26:49.382Z,46.37
2018-07-22T12:29:18.653Z,46.84
2018-07-22T12:31:47.879Z,46.83
2018-07-22T12:34:17.185Z,46.40
2018-07-22T12:36:46.476Z,45.96
2018-07-22T12:39:16.110Z,45.74
2018-07-22T12:41:45.457Z,46.27
2018-07-22T12:44:14.747Z,46.63
2018-07-22T12:46:44.041Z,46.46
2018-07-22T12:49:13.423Z,46.32
2018-07-22T12:51:42.689Z,46.64
2018-07-22T12:54:12.098Z,46.40
2018-07-22T12:56:41.279Z,45.96
2018-07-22T12:59:10.730Z,44.81
2018-07-22T13:01:39.985Z,43.90
2018-07-22T13:04:09.351Z,44.02
2018-07-22T13:06:38.539Z,44.21
2018-07-22T13:09:09.769Z,44.07
2018-07-22T13:11:39.072Z,42.94
2018-07-22T13:14:08.549Z,42.13
2018-07-22T13:16:37.816Z,41.41
2018-07-22T13:19:07.226Z,41.17
2018-07-22T13:21:37.521Z,40.68
2018-07-22T13:24:08.588Z,40.09
2018-07-22T13:26:37.949Z,39.87
2018-07-22T13:29:07.340Z,39.42
2018-07-22T13:31:36.645Z,39.07
2018-07-22T13:34:06.073Z,38.99
2018-07-22T13:36:35.537Z,39.60
2018-07-22T13:39:07.295Z,40.36
2018-07-22T13:41:36.759Z,40.94
2018-07-22T13:44:06.059Z,41.71
2018-07-22T13:46:35.297Z,42.46
2018-07-22T13:49:04.536Z,42.86
2018-07-22T13:51:33.688Z,42.79
2018-07-22T13:54:03.130Z,42.21
2018-07-22T13:56:32.414Z,41.63
2018-07-22T13:59:01.889Z,41.06
2018-07-22T14:01:31.192Z,40.36
2018-07-22T14:04:00.702Z,39.97
2018-07-22T14:06:29.935Z,40.34
2018-07-22T14:08:59.362Z,40.95
2018-07-22T14:11:28.740Z,40.70
2018-07-22T14:13:58.073Z,40.63
2018-07-22T14:16:27.487Z,40.34
2018-07-22T14:18:56.727Z,39.85
2018-07-22T14:21:25.924Z,39.30
2018-07-22T14:23:55.190Z,38.81
2018-07-22T14:26:24.184Z,38.44
2018-07-22T14:28:53.194Z,38.38
2018-07-22T14:31:22.406Z,38.26
2018-07-22T14:33:51.767Z,38.08
2018-07-22T14:36:21.828Z,37.92
2018-07-22T14:38:51.185Z,37.87
2018-07-22T14:41:20.419Z,37.71
2018-07-22T14:43:49.820Z,37.47
2018-07-22T14:46:19.192Z,37.24
2018-07-22T14:48:48.089Z,37.13
2018-07-22T14:51:17.487Z,36.94
2018-07-22T14:53:46.955Z,36.68
2018-07-22T14:56:16.373Z,36.58
2018-07-22T14:58:45.710Z,36.59
2018-07-22T15:01:14.866Z,36.45
2018-07-22T15:03:44.660Z,36.37
2018-07-22T15:06:13.967Z,36.22
2018-07-22T15:08:43.699Z,36.16
2018-07-22T15:11:12.601Z,35.98
2018-07-22T15:13:41.909Z,35.86
2018-07-22T15:16:11.222Z,35.42
2018-07-22T15:18:40.672Z,35.23
2018-07-22T15:21:10.038Z,35.19
2018-07-22T15:23:38.964Z,34.55
2018-07-22T15:26:08.467Z,34.62
2018-07-22T15:28:37.578Z,34.17
2018-07-22T15:31:06.755Z,34.39
2018-07-22T15:33:36.049Z,34.27
2018-07-22T15:36:05.437Z,34.31
2018-07-22T15:38:34.316Z,34.33
2018-07-22T15:41:03.658Z,34.02
2018-07-22T15:43:33.067Z,33.90
2018-07-22T15:46:02.228Z,33.36
2018-07-22T15:48:31.613Z,33.64
2018-07-22T15:51:00.984Z,33.68
2018-07-22T15:53:30.107Z,33.76
2018-07-22T15:55:59.044Z,33.72
2018-07-22T15:58:28.538Z,33.59
2018-07-22T16:00:57.802Z,33.43
2018-07-22T16:03:26.850Z,33.46
2018-07-22T16:05:55.917Z,33.55
2018-07-22T16:08:25.196Z,33.64
2018-07-22T16:10:54.413Z,33.56
2018-07-22T16:13:23.620Z,33.43
2018-07-22T16:15:53.131Z,33.26
2018-07-22T16:18:22.220Z,33.03
2018-07-22T16:20:51.587Z,32.95
2018-07-22T16:23:20.816Z,32.75
2018-07-22T16:25:50.084Z,32.47
2018-07-22T16:28:19.079Z,32.22
2018-07-22T16:30:48.265Z,32.04
2018-07-22T16:33:17.505Z,31.78
2018-07-22T16:35:46.769Z,31.50
2018-07-22T16:38:16.094Z,30.96
2018-07-22T16:40:45.388Z,30.79
2018-07-22T16:43:14.735Z,30.82
2018-07-22T16:45:43.682Z,30.72
2018-07-22T16:48:12.848Z,30.49
2018-07-22T16:50:42.046Z,30.29
2018-07-22T16:53:11.248Z,30.04
2018-07-22T16:55:40.512Z,30.13
2018-07-22T16:58:09.828Z,30.10
2018-07-22T17:00:39.288Z,30.29
2018-07-22T17:03:08.456Z,30.14
2018-07-22T17:05:37.967Z,30.10
2018-07-22T17:08:07.416Z,30.07
2018-07-22T17:10:36.640Z,30.01
2018-07-22T17:13:05.820Z,30.10
2018-07-22T17:15:34.950Z,30.05
2018-07-22T17:18:03.952Z,30.10
2018-07-22T17:20:33.011Z,30.04
2018-07-22T17:23:02.185Z,30.21
2018-07-22T17:25:31.447Z,30.26
2018-07-22T17:28:00.670Z,30.32
2018-07-22T17:30:30.031Z,30.34
2018-07-22T17:32:59.280Z,30.33
2018-07-22T17:35:28.185Z,30.35
2018-07-22T17:37:57.578Z,30.40
2018-07-22T17:40:26.615Z,30.40
2018-07-22T17:42:56.010Z,30.36
2018-07-22T17:45:25.273Z,30.33
2018-07-22T17:47:54.815Z,30.21
2018-07-22T17:50:24.275Z,30.03
2018-07-22T17:52:53.472Z,29.88
2018-07-22T17:55:22.444Z,29.80
2018-07-22T17:57:51.767Z,29.70
2018-07-22T18:00:21.092Z,29.60
2018-07-22T18:02:57.856Z,29.56
2018-07-22T18:05:27.429Z,29.62
2018-07-22T18:07:56.839Z,29.49
2018-07-22T18:10:25.996Z,29.33
2018-07-22T18:12:55.334Z,29.21
2018-07-22T18:15:24.602Z,29.12
2018-07-22T18:17:53.926Z,29.04
2018-07-22T18:20:23.165Z,28.80
2018-07-22T18:22:52.319Z,28.76
2018-07-22T18:25:21.686Z,28.72
2018-07-22T18:27:50.915Z,28.58
2018-07-22T18:30:20.432Z,28.48
2018-07-22T18:32:49.608Z,28.36
2018-07-22T18:35:18.802Z,28.21
2018-07-22T18:37:47.904Z,27.81
2018-07-22T18:40:17.111Z,27.79
2018-07-22T18:42:46.328Z,27.79
2018-07-22T18:45:15.509Z,27.93
2018-07-22T18:47:44.492Z,28.05
2018-07-22T18:50:13.769Z,28.23
2018-07-22T18:52:42.752Z,28.24
2018-07-22T18:55:11.972Z,28.14
2018-07-22T18:57:41.366Z,28.22
2018-07-22T19:00:10.448Z,28.34
2018-07-22T19:02:39.729Z,28.34
2018-07-22T19:05:08.937Z,28.38
2018-07-22T19:07:38.325Z,28.37
2018-07-22T19:10:07.717Z,28.26
2018-07-22T19:12:36.915Z,28.05
2018-07-22T19:15:06.399Z,27.80
2018-07-22T19:17:35.948Z,27.56
2018-07-22T19:20:05.611Z,27.37
2018-07-22T19:22:35.112Z,27.37
2018-07-22T19:25:04.815Z,27.33
2018-07-22T19:27:35.269Z,27.37
2018-07-22T19:30:04.632Z,27.40
2018-07-22T19:32:33.639Z,27.34
2018-07-22T19:35:03.087Z,27.57
2018-07-22T19:37:32.577Z,27.65
2018-07-22T19:40:01.997Z,27.64
2018-07-22T19:42:31.179Z,27.50
2018-07-22T19:45:00.188Z,27.43
2018-07-22T19:47:29.500Z,27.39
2018-07-22T19:49:58.685Z,27.28
2018-07-22T19:52:27.725Z,27.17
2018-07-22T19:54:56.932Z,27.13
2018-07-22T19:57:26.096Z,27.11
2018-07-22T19:59:55.539Z,27.02
2018-07-22T20:02:25.272Z,27.02
2018-07-22T20:04:54.373Z,26.96
2018-07-22T20:07:23.781Z,27.07
2018-07-22T20:09:53.200Z,27.14
2018-07-22T20:12:22.904Z,27.01
2018-07-22T20:14:52.335Z,27.01
2018-07-22T20:17:21.551Z,27.05
2018-07-22T20:19:50.851Z,27.04
2018-07-22T20:22:19.830Z,27.06
2018-07-22T20:24:49.237Z,26.53
2018-07-22T20:27:18.668Z,26.62
2018-07-22T20:29:47.988Z,26.71
2018-07-22T20:32:17.289Z,26.72
2018-07-22T20:34:47.239Z,26.52
2018-07-22T20:37:16.661Z,26.37
2018-07-22T20:39:45.876Z,26.41
2018-07-22T20:42:15.027Z,26.37
2018-07-22T20:44:44.618Z,26.39
2018-07-22T20:47:13.933Z,26.27
2018-07-22T20:49:43.050Z,25.94
2018-07-22T20:52:12.249Z,25.71
2018-07-22T20:54:41.651Z,25.68
2018-07-22T20:57:11.113Z,25.68
2018-07-22T20:59:40.349Z,25.70
2018-07-22T21:02:09.758Z,25.71
2018-07-22T21:04:38.959Z,25.82
2018-07-22T21:07:08.347Z,25.89
2018-07-22T21:09:37.587Z,25.70
2018-07-22T21:12:46.967Z,25.42
2018-07-22T21:15:16.853Z,25.14
2018-07-22T21:17:47.219Z,25.15
2018-07-22T21:20:17.517Z,25.23
2018-07-22T21:22:46.779Z,25.25
2018-07-22T21:25:16.547Z,25.04
2018-07-22T21:27:45.743Z,25.05
2018-07-22T21:30:15.381Z,25.20
2018-07-22T21:32:44.343Z,25.21
2018-07-22T21:35:13.641Z,25.22
2018-07-22T21:37:42.927Z,25.32
2018-07-22T21:40:12.130Z,25.12
2018-07-22T21:42:41.378Z,24.98
2018-07-22T21:45:10.512Z,24.96
2018-07-22T21:47:39.875Z,25.02
2018-07-22T21:50:09.201Z,25.04
2018-07-22T21:52:38.571Z,25.06
2018-07-22T21:55:07.891Z,25.14
2018-07-22T21:57:37.443Z,25.15
2018-07-22T22:00:13.640Z,25.15
2018-07-22T22:02:43.008Z,25.01
2018-07-22T22:05:12.379Z,24.74
2018-07-22T22:07:41.697Z,24.66
2018-07-22T22:10:11.113Z,24.81
2018-07-22T22:12:40.329Z,24.78
2018-07-22T22:15:19.521Z,24.48
2018-07-22T22:17:49.025Z,24.27
2018-07-22T22:20:18.113Z,24.01
2018-07-22T22:22:47.380Z,23.86
2018-07-22T22:25:16.699Z,23.75
2018-07-22T22:27:45.988Z,23.74
2018-07-22T22:30:16.347Z,23.75
2018-07-22T22:32:46.146Z,23.80
2018-07-22T22:35:15.652Z,23.67
2018-07-22T22:37:45.503Z,23.71
2018-07-22T22:40:15.599Z,23.74
2018-07-22T22:42:45.973Z,23.70
2018-07-22T22:45:15.735Z,23.80
2018-07-22T22:47:45.013Z,23.83
2018-07-22T22:50:14.181Z,23.75
2018-07-22T22:52:43.347Z,23.76
2018-07-22T22:55:12.607Z,23.89
2018-07-22T22:57:51.718Z,24.02
2018-07-22T23:00:21.224Z,24.05
2018-07-22T23:02:50.533Z,23.94
2018-07-22T23:05:19.880Z,23.82
2018-07-22T23:07:48.891Z,23.77
2018-07-22T23:10:18.195Z,23.60
2018-07-22T23:12:47.379Z,23.47
2018-07-22T23:15:16.360Z,23.39
2018-07-22T23:17:45.573Z,23.44
2018-07-22T23:20:14.770Z,23.54
2018-07-22T23:22:43.947Z,23.46
2018-07-22T23:25:13.302Z,23.54
2018-07-22T23:27:42.599Z,23.60
2018-07-22T23:30:11.893Z,23.64
2018-07-22T23:32:41.157Z,23.62
2018-07-22T23:35:10.502Z,23.50
2018-07-22T23:37:39.897Z,23.40
2018-07-22T23:40:09.288Z,23.34
2018-07-22T23:42:38.503Z,23.28
2018-07-22T23:45:07.501Z,23.24
2018-07-22T23:47:36.746Z,23.11
2018-07-22T23:50:06.362Z,22.97
2018-07-22T23:52:35.743Z,22.87
2018-07-22T23:55:04.825Z,23.06
2018-07-22T23:57:34.128Z,23.23
